createdAt,value
2022-08-07T00:02:41.180Z,93315.97
2022-08-07T00:05:03.915Z,93322.78
2022-08-07T00:07:40.303Z,93318.81
2022-08-07T00:10:26.107Z,93322.97
2022-08-07T00:12:59.853Z,93315.97
2022-08-07T00:15:38.619Z,93311.38
2022-08-07T00:18:19.257Z,93315.19
2022-08-07T00:20:50.428Z,93314.22
2022-08-07T00:23:21.344Z,93305.00
2022-08-07T00:25:52.085Z,93302.44
2022-08-07T00:28:33.254Z,93300.25
2022-08-07T00:31:06.238Z,93295.31
2022-08-07T00:33:37.061Z,93299.59
2022-08-07T00:36:07.963Z,93284.19
2022-08-07T00:38:39.093Z,93284.03
2022-08-07T00:41:09.920Z,93288.16
2022-08-07T00:43:58.998Z,93294.38
2022-08-07T00:46:28.761Z,93291.97
2022-08-07T00:48:57.385Z,93284.06
2022-08-07T00:51:57.318Z,93277.22
2022-08-07T00:54:20.822Z,93277.84
2022-08-07T00:56:51.976Z,93282.75
2022-08-07T00:59:35.253Z,93284.47
2022-08-07T01:02:14.006Z,93283.19
2022-08-07T01:04:58.297Z,93272.41
2022-08-07T01:07:29.232Z,93271.47
2022-08-07T01:10:06.300Z,93272.75
2022-08-07T01:12:53.447Z,93265.59
2022-08-07T01:16:00.619Z,93263.53
2022-08-07T01:18:16.608Z,93258.25
2022-08-07T01:20:57.404Z,93262.53
2022-08-07T01:23:36.793Z,93257.75
2022-08-07T01:26:14.421Z,93256.94
2022-08-07T01:28:48.350Z,93245.34
2022-08-07T01:31:22.927Z,93243.28
2022-08-07T01:33:55.779Z,93248.66
2022-08-07T01:36:33.355Z,93251.25
2022-08-07T01:39:04.197Z,93253.59
2022-08-07T01:41:54.996Z,93247.09
2022-08-07T01:44:29.280Z,93256.75
2022-08-07T01:47:01.174Z,93248.53
2022-08-07T01:49:46.174Z,93251.09
2022-08-07T01:52:25.480Z,93248.25
2022-08-07T01:54:58.909Z,93251.56
2022-08-07T01:57:34.017Z,93253.75
2022-08-07T02:00:20.205Z,93266.59
2022-08-07T02:03:18.835Z,93260.09
2022-08-07T02:05:59.731Z,93258.31
2022-08-07T02:08:30.649Z,93258.00
2022-08-07T02:11:03.579Z,93254.66
2022-08-07T02:13:56.698Z,93264.00
2022-08-07T02:16:28.649Z,93261.91
2022-08-07T02:20:07.591Z,93266.84
2022-08-07T02:21:58.891Z,93263.53
2022-08-07T02:24:30.269Z,93267.50
2022-08-07T02:27:02.990Z,93265.75
2022-08-07T02:29:31.661Z,93264.44
2022-08-07T02:32:03.287Z,93261.34
2022-08-07T02:34:33.938Z,93260.66
2022-08-07T02:37:08.267Z,93268.16
2022-08-07T02:40:02.256Z,93269.44
2022-08-07T02:42:34.561Z,93265.97
2022-08-07T02:46:00.814Z,93266.47
2022-08-07T02:47:57.253Z,93266.28
2022-08-07T02:50:30.769Z,93266.59
2022-08-07T02:53:10.965Z,93260.41
2022-08-07T02:56:03.472Z,93262.06
2022-08-07T02:58:34.862Z,93264.38
2022-08-07T03:01:05.372Z,93269.97
2022-08-07T03:03:50.062Z,93271.03
2022-08-07T03:06:25.844Z,93276.84
2022-08-07T03:09:06.100Z,93271.75
2022-08-07T03:11:38.822Z,93277.69
2022-08-07T03:14:08.366Z,93278.47
2022-08-07T03:16:38.372Z,93284.25
2022-08-07T03:19:08.267Z,93282.28
2022-08-07T03:21:37.209Z,93285.28
2022-08-07T03:24:19.307Z,93295.19
2022-08-07T03:26:58.323Z,93294.59
2022-08-07T03:29:44.659Z,93296.03
2022-08-07T03:32:22.781Z,93304.78
2022-08-07T03:35:16.608Z,93304.66
2022-08-07T03:37:55.255Z,93311.56
2022-08-07T03:40:27.554Z,93308.38
2022-08-07T03:43:01.257Z,93312.38
2022-08-07T03:45:31.957Z,93312.97
2022-08-07T03:48:01.401Z,93319.84
2022-08-07T03:50:30.668Z,93318.66
2022-08-07T03:53:01.394Z,93323.72
2022-08-07T03:55:53.076Z,93336.16
2022-08-07T03:59:05.300Z,93329.81
2022-08-07T04:01:13.798Z,93331.41
2022-08-07T04:03:53.936Z,93331.22
2022-08-07T04:06:37.118Z,93325.72
2022-08-07T04:09:15.236Z,93329.81
2022-08-07T04:12:26.215Z,93327.72
2022-08-07T04:14:43.810Z,93332.19
2022-08-07T04:17:20.175Z,93330.91
2022-08-07T04:19:54.871Z,93329.72
2022-08-07T04:22:28.457Z,93336.38
2022-08-07T04:25:02.076Z,93337.75
2022-08-07T04:27:35.760Z,93332.28
2022-08-07T04:30:35.420Z,93334.69
2022-08-07T04:32:58.838Z,93330.91
2022-08-07T04:35:28.648Z,93331.09
2022-08-07T04:38:13.447Z,93328.09
2022-08-07T04:40:52.680Z,93325.53
2022-08-07T04:44:13.062Z,93330.09
2022-08-07T04:47:04.958Z,93344.75
2022-08-07T04:50:06.279Z,93340.34
2022-08-07T04:53:40.193Z,93337.56
2022-08-07T04:58:14.420Z,93330.81
2022-08-07T05:00:14.616Z,93342.75
2022-08-07T05:02:33.645Z,93338.06
2022-08-07T05:05:51.541Z,93340.53
2022-08-07T05:08:14.132Z,93346.06
2022-08-07T05:10:48.851Z,93347.53
2022-08-07T05:14:55.703Z,93346.59
2022-08-07T05:16:22.954Z,93341.78
2022-08-07T05:19:00.575Z,93343.66
2022-08-07T05:21:59.365Z,93349.81
2022-08-07T05:24:24.635Z,93344.03
2022-08-07T05:27:01.446Z,93346.78
2022-08-07T05:29:41.091Z,93355.94
2022-08-07T05:32:26.172Z,93351.94
2022-08-07T05:34:55.961Z,93348.38
2022-08-07T05:37:25.718Z,93347.31
2022-08-07T05:40:06.423Z,93352.28
2022-08-07T05:42:56.355Z,93344.13
2022-08-07T05:45:47.118Z,93353.28
2022-08-07T05:48:16.607Z,93363.19
2022-08-07T05:50:46.536Z,93362.31
2022-08-07T05:54:12.564Z,93354.06
2022-08-07T05:56:06.912Z,93366.97
2022-08-07T05:58:39.229Z,93362.31
2022-08-07T06:01:10.997Z,93368.63
2022-08-07T06:03:53.488Z,93365.75
2022-08-07T06:06:29.832Z,93364.78
2022-08-07T06:09:04.567Z,93364.94
2022-08-07T06:11:35.734Z,93361.38
2022-08-07T06:14:12.684Z,93362.56
2022-08-07T06:16:56.301Z,93359.00
2022-08-07T06:19:52.070Z,93360.78
2022-08-07T06:22:23.526Z,93359.28
2022-08-07T06:24:58.445Z,93357.97
2022-08-07T06:27:54.408Z,93363.81
2022-08-07T06:30:32.478Z,93370.50
2022-08-07T06:33:12.648Z,93371.56
2022-08-07T06:36:06.227Z,93369.13
2022-08-07T06:38:34.984Z,93366.72
2022-08-07T06:41:09.608Z,93371.00
2022-08-07T06:43:46.153Z,93372.31
2022-08-07T06:46:20.458Z,93359.94
2022-08-07T06:49:00.413Z,93359.88
2022-08-07T06:51:34.250Z,93365.16
2022-08-07T06:55:27.407Z,93364.56
2022-08-07T06:56:57.352Z,93372.63
2022-08-07T07:00:14.211Z,93367.84
2022-08-07T07:02:48.656Z,93365.16
2022-08-07T07:05:12.683Z,93360.44
2022-08-07T07:07:59.336Z,93373.28
2022-08-07T07:10:35.788Z,93373.00
2022-08-07T07:13:41.647Z,93369.44
2022-08-07T07:16:23.506Z,93381.63
2022-08-07T07:19:40.930Z,93371.72
2022-08-07T07:22:12.035Z,93377.34
2022-08-07T07:25:03.126Z,93372.00
2022-08-07T07:27:55.592Z,93376.25
2022-08-07T07:30:40.121Z,93370.66
2022-08-07T07:33:12.558Z,93366.91
2022-08-07T07:35:54.678Z,93380.56
2022-08-07T07:38:36.101Z,93374.66
2022-08-07T07:41:08.546Z,93374.38
2022-08-07T07:44:14.613Z,93374.41
2022-08-07T07:46:38.577Z,93381.91
2022-08-07T07:50:32.963Z,93380.84
2022-08-07T07:52:15.902Z,93376.06
2022-08-07T07:54:50.750Z,93376.72
2022-08-07T07:57:43.660Z,93379.34
2022-08-07T08:00:20.862Z,93376.94
2022-08-07T08:04:05.955Z,93376.56
2022-08-07T08:06:11.542Z,93375.28
2022-08-07T08:08:43.132Z,93378.25
2022-08-07T08:11:16.657Z,93382.06
2022-08-07T08:13:53.867Z,93374.63
2022-08-07T08:16:50.207Z,93374.91
2022-08-07T08:20:17.569Z,93381.28
2022-08-07T08:22:54.388Z,93372.09
2022-08-07T08:25:49.227Z,93374.75
2022-08-07T08:28:38.112Z,93369.13
2022-08-07T08:31:16.019Z,93370.19
2022-08-07T08:33:55.519Z,93368.03
2022-08-07T08:36:30.054Z,93363.53
2022-08-07T08:39:04.066Z,93363.25
2022-08-07T08:42:01.351Z,93356.72
2022-08-07T08:44:44.374Z,93361.56
2022-08-07T08:47:47.308Z,93363.25
2022-08-07T08:50:39.666Z,93356.50
2022-08-07T08:53:40.428Z,93355.63
2022-08-07T08:56:17.466Z,93359.19
2022-08-07T08:59:06.423Z,93358.38
2022-08-07T09:01:52.478Z,93357.09
2022-08-07T09:04:51.492Z,93355.78
2022-08-07T09:07:26.299Z,93355.78
2022-08-07T09:10:08.962Z,93353.09
2022-08-07T09:13:01.343Z,93358.69
2022-08-07T09:16:20.586Z,93346.13
2022-08-07T09:19:07.283Z,93350.19
2022-08-07T09:24:29.214Z,93350.41
2022-08-07T09:25:14.889Z,93365.81
2022-08-07T09:30:06.178Z,93348.00
2022-08-07T09:31:26.928Z,93359.22
2022-08-07T09:34:41.724Z,93367.59
2022-08-07T09:37:47.956Z,93361.03
2022-08-07T09:40:18.345Z,93356.03
2022-08-07T09:42:57.045Z,93351.41
2022-08-07T09:47:24.304Z,93358.16
2022-08-07T09:50:00.616Z,93357.88
2022-08-07T09:52:34.228Z,93354.97
2022-08-07T09:55:36.858Z,93357.34
2022-08-07T09:58:48.829Z,93370.16
2022-08-07T10:01:53.209Z,93365.81
2022-08-07T10:04:52.792Z,93364.22
2022-08-07T10:07:39.942Z,93362.63
2022-08-07T10:14:23.113Z,93364.56
2022-08-07T10:18:00.436Z,93367.59
2022-08-07T10:20:34.318Z,93364.06
2022-08-07T10:24:05.955Z,93354.13
2022-08-07T10:26:34.153Z,93363.03
2022-08-07T10:29:21.536Z,93359.22
2022-08-07T10:32:36.804Z,93360.81
2022-08-07T10:35:53.440Z,93367.81
2022-08-07T10:38:46.427Z,93359.00
2022-08-07T10:41:52.368Z,93356.88
2022-08-07T10:44:38.686Z,93367.53
2022-08-07T10:47:27.107Z,93371.53
2022-08-07T10:50:31.210Z,93371.53
2022-08-07T10:53:11.527Z,93368.41
2022-08-07T10:56:21.016Z,93371.31
2022-08-07T10:59:22.190Z,93368.16
2022-08-07T11:02:05.110Z,93368.72
2022-08-07T11:05:08.565Z,93373.06
2022-08-07T11:07:58.582Z,93368.31
2022-08-07T11:11:07.705Z,93373.91
2022-08-07T11:14:44.240Z,93365.88
2022-08-07T11:17:01.884Z,93381.44
2022-08-07T11:19:39.012Z,93379.34
2022-08-07T11:22:18.837Z,93379.09
2022-08-07T11:25:06.511Z,93387.66
2022-08-07T11:28:02.450Z,93391.75
2022-08-07T11:30:44.751Z,93389.41
2022-08-07T11:33:59.311Z,93389.16
2022-08-07T11:36:44.985Z,93389.22
2022-08-07T11:40:00.535Z,93391.66
2022-08-07T11:43:09.019Z,93384.47
2022-08-07T11:46:11.684Z,93388.22
2022-08-07T11:49:50.112Z,93401.69
2022-08-07T11:52:37.694Z,93394.78
2022-08-07T11:56:25.484Z,93391.56
2022-08-07T11:58:49.690Z,93380.59
2022-08-07T12:01:59.756Z,93391.34
2022-08-07T12:04:32.516Z,93385.19
2022-08-07T12:07:09.059Z,93388.41
2022-08-07T12:09:57.455Z,93389.25
2022-08-07T12:12:45.390Z,93386.59
2022-08-07T12:16:05.294Z,93383.66
2022-08-07T12:18:46.224Z,93391.16
2022-08-07T12:22:38.121Z,93387.50
2022-08-07T12:26:23.083Z,93389.88
2022-08-07T12:28:31.060Z,93393.34
2022-08-07T12:31:10.981Z,93393.91
2022-08-07T12:33:56.058Z,93395.50
2022-08-07T12:36:32.764Z,93397.38
2022-08-07T12:39:09.339Z,93395.78
2022-08-07T12:41:56.743Z,93401.09
2022-08-07T12:44:29.489Z,93400.03
2022-08-07T12:47:21.752Z,93399.47
2022-08-07T12:50:39.427Z,93402.66
2022-08-07T12:53:27.505Z,93408.78
2022-08-07T12:56:17.995Z,93415.94
2022-08-07T12:58:53.150Z,93407.34
2022-08-07T13:01:32.454Z,93414.50
2022-08-07T13:04:34.536Z,93416.91
2022-08-07T13:08:14.485Z,93407.75
2022-08-07T13:10:39.575Z,93404.78
2022-08-07T13:13:47.408Z,93417.22
2022-08-07T13:16:50.721Z,93414.16
2022-08-07T13:19:50.252Z,93414.53
2022-08-07T13:22:33.427Z,93418.16
2022-08-07T13:25:29.116Z,93426.97
2022-08-07T13:28:18.455Z,93422.88
2022-08-07T13:31:01.965Z,93432.19
2022-08-07T13:34:31.338Z,93428.06
2022-08-07T13:36:52.462Z,93442.44
2022-08-07T13:40:34.047Z,93435.03
2022-08-07T13:42:27.067Z,93441.56
2022-08-07T13:45:20.916Z,93436.44
2022-08-07T13:48:06.076Z,93440.03
2022-08-07T13:50:44.794Z,93438.53
2022-08-07T13:53:35.928Z,93437.88
2022-08-07T13:56:35.624Z,93433.97
2022-08-07T13:59:21.671Z,93439.75
2022-08-07T14:02:04.069Z,93441.06
2022-08-07T14:04:47.455Z,93440.19
2022-08-07T14:07:23.084Z,93437.28
2022-08-07T14:10:17.639Z,93441.44
2022-08-07T14:13:09.203Z,93432.06
2022-08-07T14:15:41.124Z,93434.91
2022-08-07T14:18:30.734Z,93432.00
2022-08-07T14:21:08.358Z,93426.69
2022-08-07T14:24:10.981Z,93432.38
2022-08-07T14:28:09.295Z,93438.13
2022-08-07T14:30:11.125Z,93436.47
2022-08-07T14:32:53.305Z,93441.25
2022-08-07T14:35:45.665Z,93453.38
2022-08-07T14:38:26.247Z,93442.97
2022-08-07T14:41:14.976Z,93454.59
2022-08-07T14:43:57.987Z,93454.50
2022-08-07T14:46:37.393Z,93448.50
2022-08-07T14:52:16.819Z,93458.22
2022-08-07T14:54:46.833Z,93463.00
2022-08-07T14:57:54.373Z,93454.16
2022-08-07T15:00:20.491Z,93447.91
2022-08-07T15:03:18.834Z,93451.03
2022-08-07T15:05:54.335Z,93449.88
2022-08-07T15:08:47.455Z,93458.38
2022-08-07T15:11:54.153Z,93452.38
2022-08-07T15:14:18.887Z,93455.63
2022-08-07T15:16:54.482Z,93451.81
2022-08-07T15:20:31.586Z,93449.63
2022-08-07T15:22:23.076Z,93448.50
2022-08-07T15:33:43.941Z,93450.84
2022-08-07T15:36:14.353Z,93455.94
2022-08-07T15:39:10.563Z,93451.19
2022-08-07T15:44:53.200Z,93450.16
2022-08-07T15:48:00.049Z,93456.38
2022-08-07T15:50:37.725Z,93455.59
2022-08-07T15:53:14.880Z,93456.47
2022-08-07T15:56:02.724Z,93450.09
2022-08-07T15:58:40.679Z,93454.41
2022-08-07T16:01:38.452Z,93457.25
2022-08-07T16:04:15.459Z,93459.97
2022-08-07T16:06:54.723Z,93464.09
2022-08-07T16:09:51.324Z,93464.88
2022-08-07T16:12:39.148Z,93465.66
2022-08-07T16:15:54.555Z,93462.97
2022-08-07T16:18:53.748Z,93464.84
2022-08-07T16:22:01.544Z,93460.28
2022-08-07T16:25:04.809Z,93454.75
2022-08-07T16:27:46.612Z,93454.19
2022-08-07T16:30:31.485Z,93453.22
2022-08-07T16:34:01.723Z,93459.56
2022-08-07T16:36:19.771Z,93459.25
2022-08-07T16:39:40.334Z,93454.06
2022-08-07T16:42:46.703Z,93454.50
2022-08-07T16:46:33.731Z,93451.16
2022-08-07T16:48:58.430Z,93443.06
2022-08-07T16:52:50.926Z,93450.41
2022-08-07T16:55:28.807Z,93447.97
2022-08-07T16:58:54.377Z,93447.44
2022-08-07T17:01:21.143Z,93450.13
2022-08-07T17:04:25.129Z,93441.50
2022-08-07T17:06:57.995Z,93436.31
2022-08-07T17:10:06.683Z,93439.97
2022-08-07T17:12:45.442Z,93442.38
2022-08-07T17:15:44.538Z,93441.94
2022-08-07T17:18:51.308Z,93437.75
2022-08-07T17:21:51.465Z,93438.84
2022-08-07T17:24:48.754Z,93431.75
2022-08-07T17:27:37.023Z,93440.19
2022-08-07T17:30:20.487Z,93430.31
2022-08-07T17:34:09.428Z,93435.50
2022-08-07T17:36:20.378Z,93433.00
2022-08-07T17:38:50.263Z,93425.03
2022-08-07T17:42:04.913Z,93432.06
2022-08-07T17:44:58.433Z,93435.28
2022-08-07T17:47:53.941Z,93430.53
2022-08-07T17:50:47.317Z,93428.97
2022-08-07T17:54:00.795Z,93428.44
2022-08-07T17:56:49.353Z,93431.50
2022-08-07T17:59:27.140Z,93428.97
2022-08-07T18:02:23.359Z,93421.78
2022-08-07T18:05:20.828Z,93420.38
2022-08-07T18:08:24.133Z,93417.44
2022-08-07T18:11:53.934Z,93421.47
2022-08-07T18:14:29.104Z,93420.63
2022-08-07T18:18:39.714Z,93426.31
2022-08-07T18:21:05.947Z,93416.75
2022-08-07T18:23:21.851Z,93412.72
2022-08-07T18:26:14.813Z,93411.16
2022-08-07T18:28:58.199Z,93410.97
2022-08-07T18:31:51.872Z,93413.34
2022-08-07T18:35:01.134Z,93412.75
2022-08-07T18:38:57.757Z,93407.28
2022-08-07T18:40:53.483Z,93406.84
2022-08-07T18:43:57.815Z,93405.69
2022-08-07T18:47:00.012Z,93401.47
2022-08-07T18:50:39.174Z,93394.06
2022-08-07T18:53:16.458Z,93396.13
2022-08-07T18:56:31.561Z,93398.75
2022-08-07T18:59:46.765Z,93398.09
2022-08-07T19:02:43.122Z,93388.97
2022-08-07T19:06:04.028Z,93389.28
2022-08-07T19:09:09.097Z,93386.91
2022-08-07T19:12:05.776Z,93380.59
2022-08-07T19:16:03.646Z,93384.91
2022-08-07T19:18:33.999Z,93386.91
2022-08-07T19:21:13.964Z,93378.91
2022-08-07T19:24:02.026Z,93369.72
2022-08-07T19:27:09.102Z,93365.00
2022-08-07T19:30:55.426Z,93363.25
2022-08-07T19:32:42.322Z,93355.47
2022-08-07T19:35:22.564Z,93358.00
2022-08-07T19:38:00.886Z,93357.03
2022-08-07T19:40:38.181Z,93376.94
2022-08-07T19:43:48.938Z,93366.91
2022-08-07T19:46:15.746Z,93362.38
2022-08-07T19:48:53.482Z,93372.97
2022-08-07T19:51:52.323Z,93377.13
2022-08-07T19:54:33.178Z,93375.09
2022-08-07T19:58:01.974Z,93370.50
2022-08-07T20:00:10.148Z,93372.72
2022-08-07T20:02:52.001Z,93370.38
2022-08-07T20:05:28.676Z,93360.66
2022-08-07T20:08:06.695Z,93355.38
2022-08-07T20:10:55.031Z,93356.25
2022-08-07T20:13:46.472Z,93350.16
2022-08-07T20:16:36.982Z,93361.44
2022-08-07T20:19:09.969Z,93349.81
2022-08-07T20:21:47.141Z,93359.66
2022-08-07T20:24:35.630Z,93350.88
2022-08-07T20:27:11.672Z,93348.25
2022-08-07T20:29:56.743Z,93341.22
2022-08-07T20:32:49.748Z,93351.06
2022-08-07T20:35:27.099Z,93351.81
2022-08-07T20:38:00.866Z,93352.28
2022-08-07T20:40:34.898Z,93345.06
2022-08-07T20:43:14.507Z,93345.97
2022-08-07T20:46:29.107Z,93340.47
2022-08-07T20:48:58.178Z,93338.28
2022-08-07T20:51:40.572Z,93341.00
2022-08-07T20:54:30.272Z,93340.47
2022-08-07T20:57:10.397Z,93339.09
2022-08-07T21:00:05.675Z,93337.75
2022-08-07T21:02:53.836Z,93333.25
2022-08-07T21:05:42.963Z,93337.34
2022-08-07T21:08:20.717Z,93339.09
2022-08-07T21:11:10.468Z,93335.25
2022-08-07T21:13:43.700Z,93334.53
2022-08-07T21:16:31.857Z,93333.53
2022-08-07T21:19:01.655Z,93338.66
2022-08-07T21:21:49.314Z,93331.22
2022-08-07T21:24:48.016Z,93335.59
2022-08-07T21:27:40.157Z,93341.50
2022-08-07T21:30:19.125Z,93338.78
2022-08-07T21:32:53.586Z,93337.56
2022-08-07T21:36:06.595Z,93336.31
2022-08-07T21:38:50.364Z,93333.16
2022-08-07T21:41:38.427Z,93329.09
2022-08-07T21:44:25.382Z,93334.22
2022-08-07T21:47:17.378Z,93329.75
2022-08-07T21:50:05.035Z,93334.75
2022-08-07T21:52:49.550Z,93330.53
2022-08-07T21:55:30.158Z,93329.97
2022-08-07T21:58:32.810Z,93327.03
2022-08-07T22:01:14.479Z,93319.09
2022-08-07T22:03:56.382Z,93318.38
2022-08-07T22:06:34.847Z,93316.66
2022-08-07T22:09:12.797Z,93317.63
2022-08-07T22:12:05.685Z,93314.81
2022-08-07T22:14:59.737Z,93312.50
2022-08-07T22:17:38.028Z,93315.16
2022-08-07T22:20:36.180Z,93314.63
2022-08-07T22:23:42.306Z,93321.25
2022-08-07T22:26:22.705Z,93315.03
2022-08-07T22:29:33.911Z,93312.91
2022-08-07T22:32:23.361Z,93312.19
2022-08-07T22:35:02.962Z,93309.53
2022-08-07T22:38:01.803Z,93300.94
2022-08-07T22:40:52.376Z,93309.34
2022-08-07T22:43:38.399Z,93297.47
2022-08-07T22:47:02.266Z,93294.25
2022-08-07T22:49:54.077Z,93295.53
2022-08-07T22:52:57.710Z,93296.66
2022-08-07T22:56:08.579Z,93297.97
2022-08-07T22:59:14.355Z,93287.31
2022-08-07T23:02:27.487Z,93290.56
2022-08-07T23:06:08.527Z,93284.72
2022-08-07T23:08:23.870Z,93286.03
2022-08-07T23:11:41.304Z,93279.19
2022-08-07T23:14:30.518Z,93276.75
2022-08-07T23:17:20.999Z,93271.47
2022-08-07T23:20:51.419Z,93279.63
2022-08-07T23:24:06.156Z,93269.44
2022-08-07T23:26:28.728Z,93277.44
2022-08-07T23:29:42.627Z,93270.78
2022-08-07T23:34:19.444Z,93268.53
2022-08-07T23:35:37.601Z,93259.50
2022-08-07T23:38:19.435Z,93263.72
2022-08-07T23:41:14.597Z,93259.31
2022-08-07T23:44:05.364Z,93246.97
2022-08-07T23:46:52.810Z,93247.47
2022-08-07T23:49:54.887Z,93254.16
2022-08-07T23:53:08.780Z,93249.38
2022-08-07T23:55:55.467Z,93240.66
